Time;durP1;ratioP1;P1;durP2;ratioP2;P2;SDS_P1;SDS_P2;PMS_P1;PMS_P2;Temp;Humidity;BMP_temperature;BMP_pressure;BME280_temperature;BME280_humidity;BME280_pressure;Samples;Min_cycle;Max_cycle;Signal;HPM_P1;HPM_P2
2021/05/19 00:00:56;;;;;;;0.10;0.10;;;;;;;-143.37;100.00;65745.06;5093552;28;20239;-71
2021/05/19 00:03:23;;;;;;;0.20;0.10;;;;;;;-143.37;100.00;65745.06;5132225;27;20199;-71
2021/05/19 00:05:50;;;;;;;0.60;0.30;;;;;;;-143.37;100.00;65745.06;5113724;27;20259;-71
2021/05/19 00:08:16;;;;;;;0.20;0.20;;;;;;;-143.37;100.00;65745.06;5109326;27;20310;-72
2021/05/19 00:10:42;;;;;;;0.30;0.30;;;;;;;-143.37;100.00;65745.06;5105453;28;20239;-72
2021/05/19 00:13:09;;;;;;;0.20;0.20;;;;;;;-143.37;100.00;65745.06;5131340;27;20306;-72
2021/05/19 00:15:35;;;;;;;0.43;0.20;;;;;;;-143.37;100.00;65745.06;5113619;27;20260;-72
2021/05/19 00:18:04;;;;;;;0.10;0.10;;;;;;;-143.37;100.00;65745.06;5102426;28;20349;-72
2021/05/19 00:20:31;;;;;;;0.17;0.17;;;;;;;-143.37;100.00;65745.06;5111461;28;20253;-71
2021/05/19 00:22:58;;;;;;;0.67;0.43;;;;;;;-143.37;100.00;65745.06;5112264;27;20246;-73
2021/05/19 00:25:25;;;;;;;0.57;0.30;;;;;;;-143.37;100.00;65745.06;5125522;27;20235;-72
2021/05/19 00:27:53;;;;;;;1.27;0.20;;;;;;;-143.37;100.00;65745.06;5119319;27;20310;-72
2021/05/19 00:30:21;;;;;;;1.20;0.30;;;;;;;-143.37;100.00;65745.06;5111443;28;20211;-72
2021/05/19 00:32:47;;;;;;;0.10;0.10;;;;;;;-143.37;100.00;65745.06;5093947;27;20715;-72
2021/05/19 00:35:14;;;;;;;0.10;0.10;;;;;;;-143.37;100.00;65745.06;5131326;27;20211;-72
2021/05/19 00:37:42;;;;;;;0.10;0.10;;;;;;;-143.37;100.00;65745.06;5131253;27;20286;-73
2021/05/19 00:40:11;;;;;;;0.70;0.50;;;;;;;-143.37;100.00;65745.06;5109702;28;20231;-72
2021/05/19 00:42:38;;;;;;;0.20;0.20;;;;;;;-143.37;100.00;65745.06;5093275;28;20208;-73
2021/05/19 00:45:07;;;;;;;0.40;0.27;;;;;;;-143.37;100.00;65745.06;5092684;28;20204;-73
2021/05/19 00:47:39;;;;;;;0.17;0.10;;;;;;;-143.37;100.00;65745.06;5093074;28;20303;-72
2021/05/19 00:50:09;;;;;;;0.20;0.20;;;;;;;-143.37;100.00;65745.06;5114219;27;20303;-73
2021/05/19 00:52:36;;;;;;;0.10;0.10;;;;;;;-143.37;100.00;65745.06;5113412;27;20287;-72
2021/05/19 00:55:04;;;;;;;0.23;0.20;;;;;;;-143.37;100.00;65745.06;5112855;27;20203;-72
2021/05/19 00:57:30;;;;;;;0.23;0.23;;;;;;;-143.37;100.00;65745.06;5124413;27;20284;-73
2021/05/19 01:34:22;;;;;;;2.00;1.07;;;;;;;;;;5091358;28;20532;-71
2021/05/19 01:36:49;;;;;;;0.37;0.30;;;;;;;;;;5088129;28;20246;-72
2021/05/19 01:39:15;;;;;;;2.63;0.53;;;;;;;;;;5087501;28;20232;-72
2021/05/19 01:41:42;;;;;;;1.30;0.30;;;;;;;;;;5087126;28;20232;-72
2021/05/19 01:44:11;;;;;;;0.13;0.13;;;;;;;;;;5069149;28;20292;-72
2021/05/19 01:46:38;;;;;;;0.30;0.30;;;;;;;;;;5087062;28;20750;-72
2021/05/19 01:49:06;;;;;;;0.40;0.20;;;;;;;;;;5086956;28;20274;-72
2021/05/19 01:51:32;;;;;;;0.17;0.17;;;;;;;;;;5085883;28;20201;-72
2021/05/19 01:53:59;;;;;;;0.10;0.10;;;;;;;;;;5086777;28;20271;-72
2021/05/19 01:56:26;;;;;;;2.70;0.40;;;;;;;;;;5086861;28;20284;-72
2021/05/19 01:58:52;;;;;;;0.30;0.30;;;;;;;;;;5085277;28;20728;-72
2021/05/19 02:01:18;;;;;;;0.50;0.30;;;;;;;;;;5087151;28;20221;-72
2021/05/19 02:03:45;;;;;;;0.50;0.50;;;;;;;;;;5086833;28;20204;-71
2021/05/19 02:06:11;;;;;;;0.73;0.30;;;;;;;;;;5085335;28;20588;-72
2021/05/19 02:08:38;;;;;;;0.83;0.30;;;;;;;;;;5085352;28;20252;-71
2021/05/19 02:11:04;;;;;;;0.20;0.20;;;;;;;;;;5085191;28;20458;-71
2021/05/19 02:13:30;;;;;;;0.83;0.37;;;;;;;;;;5086406;28;20319;-71
2021/05/19 02:15:57;;;;;;;0.10;0.10;;;;;;;;;;5085185;28;20201;-71
2021/05/19 02:18:23;;;;;;;0.20;0.20;;;;;;;;;;5085309;28;20255;-71
2021/05/19 02:20:50;;;;;;;0.50;0.50;;;;;;;;;;5085211;28;20292;-72
2021/05/19 02:23:16;;;;;;;0.40;0.40;;;;;;;;;;5086525;28;20208;-72
2021/05/19 02:25:43;;;;;;;0.30;0.30;;;;;;;;;;5085882;28;20709;-72
2021/05/19 02:28:09;;;;;;;0.20;0.20;;;;;;;;;;5086326;28;20791;-72
2021/05/19 02:30:36;;;;;;;0.20;0.20;;;;;;;;;;5086696;28;20205;-72
2021/05/19 02:33:07;;;;;;;1.33;0.50;;;;;;;;;;5086228;28;20232;-73
2021/05/19 02:35:33;;;;;;;1.30;0.30;;;;;;;;;;5085333;28;20662;-72
2021/05/19 02:37:59;;;;;;;0.47;0.47;;;;;;;;;;5085000;28;20221;-72
2021/05/19 02:40:27;;;;;;;0.40;0.40;;;;;;;;;;5086469;28;20229;-72
2021/05/19 02:42:53;;;;;;;2.30;0.80;;;;;;;;;;5085768;28;20692;-72
2021/05/19 02:45:20;;;;;;;0.30;0.30;;;;;;;;;;5075190;28;20292;-73
2021/05/19 02:47:46;;;;;;;1.07;0.73;;;;;;;;;;5072283;28;20311;-72
2021/05/19 02:50:16;;;;;;;0.57;0.50;;;;;;;;;;5072526;28;20233;-73
2021/05/19 02:52:42;;;;;;;0.30;0.30;;;;;;;;;;5070972;28;20248;-72
2021/05/19 02:55:09;;;;;;;1.10;0.70;;;;;;;;;;5072077;28;20248;-73
2021/05/19 02:57:36;;;;;;;0.40;0.40;;;;;;;;;;5072325;28;20243;-73
2021/05/19 03:00:04;;;;;;;0.60;0.60;;;;;;;;;;5072287;28;20225;-72
2021/05/19 03:02:30;;;;;;;1.33;0.70;;;;;;;;;;5072531;28;20225;-72
2021/05/19 03:04:56;;;;;;;0.70;0.63;;;;;;;;;;5070650;28;20216;-73
2021/05/19 03:07:23;;;;;;;0.60;0.60;;;;;;;;;;5072084;28;20305;-72
2021/05/19 03:09:49;;;;;;;0.80;0.53;;;;;;;;;;5071996;28;20980;-73
2021/05/19 03:12:15;;;;;;;1.00;0.50;;;;;;;;;;5072243;28;20307;-73
2021/05/19 03:14:42;;;;;;;1.00;0.57;;;;;;;;;;5071486;28;20705;-72
2021/05/19 03:17:09;;;;;;;0.43;0.40;;;;;;;;;;5070770;28;20263;-73
2021/05/19 03:19:35;;;;;;;0.87;0.50;;;;;;;;;;5072019;28;20213;-72
2021/05/19 03:22:02;;;;;;;0.90;0.53;;;;;;;;;;5070354;28;20209;-72
2021/05/19 03:24:28;;;;;;;1.20;0.73;;;;;;;;;;5071823;28;20292;-72
2021/05/19 03:26:54;;;;;;;0.90;0.70;;;;;;;;;;5053821;28;20727;-71
2021/05/19 03:29:21;;;;;;;0.40;0.40;;;;;;;;;;5071838;28;20229;-72
2021/05/19 03:31:47;;;;;;;0.60;0.57;;;;;;;;;;5070457;28;20237;-72
2021/05/19 03:34:14;;;;;;;0.70;0.60;;;;;;;;;;5071471;28;20270;-73
2021/05/19 03:36:40;;;;;;;1.07;0.80;;;;;;;;;;5070055;28;20237;-73
2021/05/19 03:39:08;;;;;;;0.87;0.67;;;;;;;;;;5054431;28;20225;-71
2021/05/19 03:41:35;;;;;;;1.37;0.97;;;;;;;;;;5070792;28;20237;-71
2021/05/19 03:44:01;;;;;;;2.17;1.20;;;;;;;;;;5071440;28;20730;-71
2021/05/19 03:46:27;;;;;;;1.17;0.77;;;;;;;;;;5071593;28;20204;-72
2021/05/19 03:48:54;;;;;;;1.17;0.87;;;;;;;;;;5071092;28;20225;-72
2021/05/19 03:51:21;;;;;;;0.40;0.40;;;;;;;;;;5071244;28;20626;-72
2021/05/19 03:53:47;;;;;;;1.03;0.70;;;;;;;;;;5070945;28;20270;-72
2021/05/19 03:56:14;;;;;;;0.80;0.73;;;;;;;;;;5068985;28;20201;-72
2021/05/19 03:58:42;;;;;;;0.60;0.60;;;;;;;;;;5070792;28;20276;-72
2021/05/19 04:01:08;;;;;;;0.83;0.70;;;;;;;;;;5071222;28;20288;-72
2021/05/19 04:03:35;;;;;;;1.10;0.70;;;;;;;;;;5070296;28;20622;-72
2021/05/19 04:06:02;;;;;;;1.80;1.17;;;;;;;;;;5070647;28;20221;-72
2021/05/19 04:08:33;;;;;;;0.90;0.70;;;;;;;;;;5070214;28;20278;-72
2021/05/19 04:10:59;;;;;;;1.67;0.97;;;;;;;;;;5075294;28;20211;-72
2021/05/19 04:13:26;;;;;;;1.00;0.90;;;;;;;;;;5076202;28;20220;-72
2021/05/19 04:15:52;;;;;;;1.07;0.73;;;;;;;;;;5071934;28;20289;-73
2021/05/19 04:18:21;;;;;;;0.47;0.47;;;;;;;;;;5052943;28;20221;-73
2021/05/19 04:20:50;;;;;;;1.33;1.20;;;;;;;;;;5070803;28;20233;-73
2021/05/19 04:23:17;;;;;;;0.70;0.60;;;;;;;;;;5065900;28;20209;-72
2021/05/19 04:25:43;;;;;;;1.43;1.07;;;;;;;;;;5064497;28;20201;-73
2021/05/19 04:28:10;;;;;;;1.20;0.93;;;;;;;;;;5069623;28;20263;-73
2021/05/19 04:30:37;;;;;;;0.73;0.63;;;;;;;;;;5069936;28;20284;-72
2021/05/19 04:33:03;;;;;;;2.03;1.20;;;;;;;;;;5068237;28;20308;-72
2021/05/19 04:35:30;;;;;;;2.23;0.90;;;;;;;;;;5069962;28;20285;-73
2021/05/19 04:37:59;;;;;;;6.03;1.20;;;;;;;;;;5067741;28;20601;-72
2021/05/19 04:40:26;;;;;;;1.73;1.03;;;;;;;;;;5070369;28;20224;-72
2021/05/19 04:42:52;;;;;;;1.57;1.03;;;;;;;;;;5068850;28;20327;-72
2021/05/19 04:45:19;;;;;;;1.90;1.27;;;;;;;;;;5062363;28;20288;-72
2021/05/19 04:47:45;;;;;;;1.03;0.93;;;;;;;;;;5069620;28;20229;-72
2021/05/19 04:50:12;;;;;;;1.20;0.80;;;;;;;;;;5070140;28;20206;-72
2021/05/19 04:52:39;;;;;;;1.43;1.00;;;;;;;;;;5070300;28;20624;-72
2021/05/19 04:55:06;;;;;;;1.07;0.90;;;;;;;;;;5069850;28;20315;-72
2021/05/19 04:57:33;;;;;;;1.57;1.10;;;;;;;;;;5069076;28;20253;-72
2021/05/19 05:00:00;;;;;;;2.10;1.10;;;;;;;;;;5068182;28;20327;-71
2021/05/19 05:02:26;;;;;;;1.30;1.17;;;;;;;;;;5069866;28;20197;-72
2021/05/19 05:04:53;;;;;;;1.00;0.90;;;;;;;;;;5069368;28;20292;-72
2021/05/19 05:07:21;;;;;;;1.50;1.37;;;;;;;;;;5069196;28;20221;-72
2021/05/19 05:09:47;;;;;;;1.93;1.43;;;;;;;;;;5069456;28;20239;-72
2021/05/19 05:12:15;;;;;;;1.90;1.20;;;;;;;;;;5069390;28;20208;-72
2021/05/19 05:14:41;;;;;;;1.60;1.30;;;;;;;;;;5067669;28;20220;-73
2021/05/19 05:17:12;;;;;;;1.30;1.20;;;;;;;;;;5069793;28;20223;-72
2021/05/19 05:19:39;;;;;;;1.20;1.10;;;;;;;;;;5068476;28;20197;-72
2021/05/19 05:22:05;;;;;;;1.27;1.10;;;;;;;;;;5068561;28;20619;-72
2021/05/19 05:24:32;;;;;;;1.90;1.20;;;;;;;;;;5068153;28;20719;-73
2021/05/19 05:26:58;;;;;;;1.27;1.17;;;;;;;;;;5069240;28;20208;-72
2021/05/19 05:29:25;;;;;;;3.60;1.80;;;;;;;;;;5069606;28;21008;-72
2021/05/19 05:31:51;;;;;;;3.17;1.33;;;;;;;;;;5069806;28;20416;-73
2021/05/19 05:34:18;;;;;;;3.07;1.50;;;;;;;;;;5069235;28;20229;-73
2021/05/19 05:36:44;;;;;;;2.67;1.57;;;;;;;;;;5068363;28;20198;-72
2021/05/19 05:39:11;;;;;;;1.97;1.10;;;;;;;;;;5069863;28;20229;-72
2021/05/19 05:41:37;;;;;;;2.67;1.70;;;;;;;;;;5070643;28;20262;-72
2021/05/19 05:44:04;;;;;;;2.07;1.77;;;;;;;;;;5068523;28;20211;-72
2021/05/19 05:46:30;;;;;;;1.60;1.20;;;;;;;;;;5069606;28;20236;-72
2021/05/19 05:48:58;;;;;;;2.20;1.60;;;;;;;;;;5069103;28;20260;-71
2021/05/19 05:51:25;;;;;;;1.20;1.10;;;;;;;;;;5067268;28;20205;-72
2021/05/19 05:53:52;;;;;;;1.23;1.00;;;;;;;;;;5067920;28;20225;-72
2021/05/19 05:56:19;;;;;;;1.95;1.27;;;;;;;;;;5069498;28;20200;-72
2021/05/19 05:58:45;;;;;;;2.22;1.67;;;;;;;;;;5069596;28;20243;-72
2021/05/19 06:01:12;;;;;;;2.28;1.70;;;;;;;;;;5068109;28;20201;-71
2021/05/19 06:03:38;;;;;;;2.25;1.83;;;;;;;;;;5068224;28;20209;-73
2021/05/19 06:06:05;;;;;;;2.05;1.60;;;;;;;;;;5069066;28;20212;-71
2021/05/19 06:08:32;;;;;;;2.05;1.33;;;;;;;;;;5067964;28;20217;-72
2021/05/19 06:11:05;;;;;;;1.77;1.40;;;;;;;;;;5068039;28;20202;-72
2021/05/19 06:13:31;;;;;;;1.88;1.65;;;;;;;;;;5068253;28;20213;-72
2021/05/19 06:15:58;;;;;;;1.85;1.40;;;;;;;;;;5068386;28;20292;-71
2021/05/19 06:18:25;;;;;;;1.60;1.20;;;;;;;;;;5067670;28;20247;-72
2021/05/19 06:20:52;;;;;;;1.20;1.10;;;;;;;;;;5072319;28;20209;-72
2021/05/19 06:23:18;;;;;;;1.92;1.42;;;;;;;;;;5072572;28;20216;-72
2021/05/19 06:25:45;;;;;;;1.85;1.35;;;;;;;;;;5072608;28;20259;-72
2021/05/19 06:28:11;;;;;;;1.65;1.20;;;;;;;;;;5071450;28;20251;-72
2021/05/19 06:30:38;;;;;;;1.27;1.17;;;;;;;;;;5055274;28;20208;-72
2021/05/19 06:33:04;;;;;;;2.78;1.45;;;;;;;;;;5077911;28;20267;-72
2021/05/19 06:35:31;;;;;;;1.52;1.42;;;;;;;;;;5077802;28;20231;-72
2021/05/19 06:37:57;;;;;;;1.13;1.02;;;;;;;;;;5071817;28;20407;-72
2021/05/19 06:40:24;;;;;;;1.58;1.30;;;;;;;;;;5073125;28;20209;-70
2021/05/19 06:42:50;;;;;;;1.42;1.20;;;;;;;;;;5075376;28;20213;-70
2021/05/19 06:45:17;;;;;;;1.40;1.23;;;;;;;;;;5074533;28;20588;-70
2021/05/19 06:47:44;;;;;;;1.48;1.20;;;;;;;;;;5073392;28;20233;-70
2021/05/19 06:50:10;;;;;;;1.55;1.15;;;;;;;;;;5071210;28;20198;-71
2021/05/19 06:52:37;;;;;;;1.08;1.08;;;;;;;;;;5072382;28;20235;-71
2021/05/19 06:55:06;;;;;;;1.35;1.00;;;;;;;;;;5071157;28;20300;-71
2021/05/19 06:57:35;;;;;;;1.33;1.13;;;;;;;;;;5072212;28;20232;-71
2021/05/19 07:00:05;;;;;;;1.13;1.02;;;;;;;;;;5071106;28;20201;-71
2021/05/19 07:02:32;;;;;;;1.05;0.93;;;;;;;;;;5072252;28;20913;-70
2021/05/19 07:04:58;;;;;;;1.08;0.98;;;;;;;;;;5071865;28;20221;-71
2021/05/19 07:07:24;;;;;;;1.38;1.10;;;;;;;;;;5072233;28;20300;-71
2021/05/19 07:09:51;;;;;;;1.48;1.13;;;;;;;;;;5071121;28;20208;-71
2021/05/19 07:12:18;;;;;;;1.30;1.20;;;;;;;;;;5072084;28;20204;-71
2021/05/19 07:14:59;;;;;;;1.75;1.42;;;;;;;;;;5070726;28;20204;-72
2021/05/19 07:17:26;;;;;;;1.27;1.08;;;;;;;;;;5070445;28;20231;-72
2021/05/19 07:19:52;;;;;;;1.98;1.40;;;;;;;;;;5070905;28;20240;-70
2021/05/19 07:22:19;;;;;;;1.70;1.23;;;;;;;;;;5054201;28;20300;-70
2021/05/19 07:24:48;;;;;;;1.10;1.00;;;;;;;;;;5071421;28;20724;-70
2021/05/19 07:27:14;;;;;;;1.38;1.13;;;;;;;;;;5071840;28;20223;-70
2021/05/19 07:29:40;;;;;;;1.70;1.25;;;;;;;;;;5070774;28;20225;-70
2021/05/19 07:32:07;;;;;;;1.45;1.27;;;;;;;;;;5070036;28;20209;-70
2021/05/19 07:34:33;;;;;;;2.88;1.13;;;;;;;;;;5071655;28;20248;-70
2021/05/19 07:37:00;;;;;;;1.95;1.17;;;;;;;;;;5071471;28;20300;-70
2021/05/19 07:39:26;;;;;;;2.15;1.40;;;;;;;;;;5071492;28;20212;-70
2021/05/19 07:41:57;;;;;;;1.73;1.23;;;;;;;;;;5071573;28;20282;-70
2021/05/19 07:44:23;;;;;;;1.52;1.17;;;;;;;;;;5069800;28;20228;-70
2021/05/19 07:46:48;;;;;;;2.25;1.58;;;;;;;;;;5071328;28;20181;-69
2021/05/19 07:49:14;;;;;;;2.33;1.40;;;;;;;;;;5071205;28;20197;-69
2021/05/19 07:51:40;;;;;;;1.80;1.20;;;;;;;;;;5070195;28;20192;-69
2021/05/19 07:54:05;;;;;;;1.42;1.20;;;;;;;;;;5071236;28;20184;-70
2021/05/19 07:56:49;;;;;;;1.27;1.17;;;;;;;;;;5069862;28;20800;-68
2021/05/19 07:59:17;;;;;;;0.90;0.73;;;;;;;;;;5070680;28;20733;-69
2021/05/19 08:02:01;;;;;;;1.60;1.40;;;;;;;;;;5070084;28;20212;-70
2021/05/19 08:04:26;;;;;;;1.65;1.13;;;;;;;;;;5070718;28;20270;-69
2021/05/19 08:06:52;;;;;;;2.25;1.30;;;;;;;;;;5069543;28;20185;-69
2021/05/19 08:09:17;;;;;;;1.00;0.80;;;;;;;;;;5069640;28;20193;-69
2021/05/19 08:11:42;;;;;;;1.65;1.20;;;;;;;;;;5069731;28;20557;-69
2021/05/19 08:14:07;;;;;;;1.20;0.93;;;;;;;;;;5070535;28;20193;-69
2021/05/19 08:16:33;;;;;;;2.83;0.93;;;;;;;;;;5069815;28;20746;-69
2021/05/19 08:18:58;;;;;;;1.08;0.90;;;;;;;;;;5072333;28;20591;-68
2021/05/19 08:21:24;;;;;;;1.35;1.08;;;;;;;;;;5070500;28;20209;-69
2021/05/19 08:23:51;;;;;;;1.17;0.95;;;;;;;;;;5068967;28;20781;-69
2021/05/19 08:26:17;;;;;;;1.23;1.13;;;;;;;;;;5069999;28;20317;-69
2021/05/19 08:28:46;;;;;;;1.67;1.10;;;;;;;;;;5070706;28;20304;-69
2021/05/19 08:31:13;;;;;;;1.13;1.02;;;;;;;;;;5070434;28;20736;-70
2021/05/19 08:33:46;;;;;;;1.35;1.10;;;;;;;;;;5070461;28;20704;-70
2021/05/19 08:36:13;;;;;;;1.45;1.10;;;;;;;;;;5070466;28;20244;-70
2021/05/19 08:38:39;;;;;;;0.93;0.80;;;;;;;;;;5070210;28;20279;-70
2021/05/19 08:41:06;;;;;;;0.98;0.85;;;;;;;;;;5063787;28;20239;-69
2021/05/19 08:43:32;;;;;;;1.08;0.98;;;;;;;;;;5067904;28;20263;-68
2021/05/19 08:45:59;;;;;;;1.58;1.23;;;;;;;;;;5068952;28;20255;-69
2021/05/19 08:48:25;;;;;;;1.08;0.85;;;;;;;;;;5069922;28;20248;-69
2021/05/19 08:50:52;;;;;;;0.95;0.88;;;;;;;;;;5071143;28;20189;-69
2021/05/19 08:53:18;;;;;;;1.08;0.90;;;;;;;;;;5069453;28;20205;-67
2021/05/19 08:55:46;;;;;;;1.02;0.82;;;;;;;;;;5066982;28;20208;-66
2021/05/19 08:58:12;;;;;;;1.50;1.08;;;;;;;;;;5069575;28;20237;-69
2021/05/19 09:00:39;;;;;;;1.50;1.13;;;;;;;;;;5069747;28;20220;-67
2021/05/19 09:03:12;;;;;;;1.40;1.00;;;;;;;;;;5069389;28;20301;-68
2021/05/19 09:05:39;;;;;;;0.95;0.93;;;;;;;;;;5069130;28;20684;-68
2021/05/19 09:08:06;;;;;;;1.52;1.00;;;;;;;;;;5069608;28;20278;-67
2021/05/19 09:10:33;;;;;;;1.38;0.93;;;;;;;;;;5069990;28;20741;-67
2021/05/19 09:13:00;;;;;;;0.88;0.82;;;;;;;;;;5068635;28;20236;-68
2021/05/19 09:15:44;;;;;;;1.60;1.38;;;;;;;;;;5067177;28;20201;-68
2021/05/19 09:18:10;;;;;;;1.23;1.10;;;;;;;;;;5069004;28;20240;-69
2021/05/19 09:20:44;;;;;;;1.38;1.10;;;;;;;;;;5067988;28;20231;-69
2021/05/19 09:23:16;;;;;;;1.15;0.90;;;;;;;;;;5068150;28;20213;-69
2021/05/19 09:25:43;;;;;;;1.50;1.00;;;;;;;;;;5067370;28;20233;-68
2021/05/19 09:28:10;;;;;;;0.90;0.90;;;;;;;;;;5067982;28;20222;-69
2021/05/19 09:30:36;;;;;;;1.25;0.85;;;;;;;;;;5068772;28;20232;-68
2021/05/19 09:33:18;;;;;;;1.10;0.90;;;;;;;;;;5067392;28;20208;-68
2021/05/19 09:36:08;;;;;;;1.10;1.00;;;;;;;;;;5068074;28;20681;-69
2021/05/19 09:38:35;;;;;;;1.42;1.20;;;;;;;;;;5058309;28;20260;-69
2021/05/19 09:41:20;;;;;;;1.75;1.00;;;;;;;;;;5069091;28;20215;-69
2021/05/19 09:43:47;;;;;;;0.57;0.57;;;;;;;;;;5067430;28;20556;-68
2021/05/19 09:49:17;;;;;;;0.65;0.60;;;;;;;;;;5068684;28;20221;-69
2021/05/19 09:51:45;;;;;;;0.88;0.70;;;;;;;;;;5068732;28;20254;-68
2021/05/19 09:54:24;;;;;;;1.10;0.90;;;;;;;;;;5052367;28;20208;-69
2021/05/19 09:56:55;;;;;;;0.85;0.82;;;;;;;;;;5072349;28;20343;-70
2021/05/19 09:59:22;;;;;;;1.50;1.00;;;;;;;;;;5072973;28;20224;-69
2021/05/19 10:01:49;;;;;;;0.82;0.80;;;;;;;;;;5072163;28;20216;-69
2021/05/19 10:04:17;;;;;;;0.90;0.80;;;;;;;;;;5072857;28;20259;-68
2021/05/19 10:06:43;;;;;;;1.15;1.05;;;;;;;;;;5073563;28;20251;-69
2021/05/19 10:09:21;;;;;;;1.00;0.90;;;;;;;;;;5069160;28;20232;-71
2021/05/19 10:11:47;;;;;;;0.90;0.80;;;;;;;;;;5070990;28;20625;-69
2021/05/19 10:14:14;;;;;;;0.73;0.60;;;;;;;;;;5071282;28;20288;-70
2021/05/19 10:16:42;;;;;;;1.00;0.90;;;;;;;;;;5071986;28;20568;-70
2021/05/19 10:19:11;;;;;;;0.73;0.63;;;;;;;;;;5072638;28;20300;-70
2021/05/19 10:21:38;;;;;;;0.70;0.70;;;;;;;;;;5071198;28;20220;-70
2021/05/19 10:24:06;;;;;;;2.45;1.10;;;;;;;;;;5071112;28;20259;-70
2021/05/19 10:26:56;;;;;;;0.70;0.70;;;;;;;;;;5071043;28;20237;-70
2021/05/19 10:29:41;;;;;;;1.00;0.82;;;;;;;;;;5061641;28;20258;-69
2021/05/19 10:32:20;;;;;;;1.17;1.02;;;;;;;;;;5071739;28;20240;-70
2021/05/19 10:34:46;;;;;;;0.93;0.80;;;;;;;;;;5069702;28;20262;-70
2021/05/19 10:37:28;;;;;;;1.13;1.02;;;;;;;;;;5070821;28;20212;-70
2021/05/19 10:40:07;;;;;;;1.60;0.98;;;;;;;;;;5072278;28;20193;-70
2021/05/19 10:42:42;;;;;;;1.30;1.10;;;;;;;;;;5072257;28;20201;-70
2021/05/19 10:45:13;;;;;;;2.05;1.05;;;;;;;;;;5071915;28;20363;-70
2021/05/19 10:47:40;;;;;;;1.73;0.90;;;;;;;;;;5062757;28;20255;-69
2021/05/19 10:50:51;;;;;;;1.00;0.85;;;;;;;;;;5072002;28;20640;-69
2021/05/19 10:58:57;;;;;;;0.95;0.90;;;;;;;;;;5062781;28;20639;-69
2021/05/19 11:01:39;;;;;;;0.93;0.82;;;;;;;;;;5070162;28;20284;-70
2021/05/19 11:04:11;;;;;;;2.67;1.10;;;;;;;;;;5071276;28;20209;-70
2021/05/19 11:06:56;;;;;;;2.35;1.40;;;;;;;;;;5070862;28;20362;-70
2021/05/19 11:09:27;;;;;;;1.67;1.33;;;;;;;;;;5070354;28;20255;-70
2021/05/19 11:12:13;;;;;;;1.10;0.95;;;;;;;;;;5071787;28;20671;-69
2021/05/19 11:15:03;;;;;;;1.23;0.90;;;;;;;;;;5071325;28;20267;-69
2021/05/19 11:17:37;;;;;;;0.98;0.88;;;;;;;;;;5070259;28;20237;-70
2021/05/19 11:20:05;;;;;;;1.00;0.90;;;;;;;;;;5070340;28;20224;-71
2021/05/19 11:22:32;;;;;;;1.42;1.10;;;;;;;;;;5072550;28;20634;-71
2021/05/19 11:24:59;;;;;;;1.42;1.10;;;;;;;;;;5069627;28;20287;-71
2021/05/19 11:27:31;;;;;;;1.25;0.98;;;;;;;;;;5052038;28;20229;-71
2021/05/19 11:29:58;;;;;;;1.55;0.95;;;;;;;;;;5064456;28;20654;-70
2021/05/19 11:32:26;;;;;;;1.33;1.00;;;;;;;;;;5072850;28;20205;-70
2021/05/19 11:34:53;;;;;;;1.35;1.08;;;;;;;;;;5077920;28;20205;-72
2021/05/19 11:37:20;;;;;;;1.02;0.98;;;;;;;;;;5071155;28;20600;-70
2021/05/19 11:39:53;;;;;;;0.93;0.80;;;;;;;;;;5054913;28;20237;-71
2021/05/19 11:42:25;;;;;;;0.90;0.90;;;;;;;;;;5072764;28;20727;-70
2021/05/19 11:45:10;;;;;;;1.40;0.95;;;;;;;;;;5072345;28;20256;-70
2021/05/19 11:47:40;;;;;;;1.27;1.05;;;;;;;;;;5073306;28;20221;-71
2021/05/19 11:50:09;;;;;;;1.15;0.85;;;;;;;;;;5071646;28;20201;-71
2021/05/19 11:52:42;;;;;;;0.90;0.80;;;;;;;;;;5070070;28;20236;-71
2021/05/19 11:55:29;;;;;;;2.10;0.77;;;;;;;;;;5071738;28;20578;-71
2021/05/19 11:58:06;;;;;;;0.50;0.50;;;;;;;;;;5060886;28;20274;-71
2021/05/19 12:00:36;;;;;;;1.30;0.77;;;;;;;;;;5071449;28;20670;-71
2021/05/19 12:03:03;;;;;;;0.85;0.68;;;;;;;;;;5070983;28;20209;-71
2021/05/19 12:05:42;;;;;;;1.42;0.60;;;;;;;;;;5070905;28;20644;-71
2021/05/19 12:08:09;;;;;;;1.30;0.75;;;;;;;;;;5071065;28;20229;-71
2021/05/19 12:10:36;;;;;;;1.15;0.80;;;;;;;;;;5070960;28;20679;-70
2021/05/19 12:13:03;;;;;;;1.50;0.77;;;;;;;;;;5071117;28;20240;-70
2021/05/19 12:15:34;;;;;;;0.88;0.70;;;;;;;;;;5069635;28;20296;-70
2021/05/19 12:18:01;;;;;;;0.60;0.57;;;;;;;;;;5068921;28;20259;-71
2021/05/19 12:20:28;;;;;;;2.50;1.17;;;;;;;;;;5069813;28;20202;-71
2021/05/19 12:22:55;;;;;;;1.23;0.70;;;;;;;;;;5071019;28;20213;-71
2021/05/19 12:25:22;;;;;;;1.00;0.70;;;;;;;;;;5069077;28;20233;-71
2021/05/19 12:27:52;;;;;;;0.40;0.40;;;;;;;;;;5070708;28;20256;-70
2021/05/19 12:30:19;;;;;;;1.42;0.80;;;;;;;;;;5069260;28;20606;-70
2021/05/19 12:32:58;;;;;;;0.65;0.60;;;;;;;;;;5070422;28;20653;-70
2021/05/19 12:35:26;;;;;;;0.63;0.50;;;;;;;;;;5070053;28;20209;-70
2021/05/19 12:38:01;;;;;;;0.88;0.60;;;;;;;;;;5068883;28;20602;-70
2021/05/19 12:40:32;;;;;;;0.98;0.52;;;;;;;;;;5070545;28;20208;-71
2021/05/19 12:43:00;;;;;;;3.25;0.88;;;;;;;;;;5067730;28;20253;-72
2021/05/19 12:45:45;;;;;;;1.10;0.47;;;;;;;;;;5068660;28;20328;-71
2021/05/19 12:48:16;;;;;;;0.68;0.35;;;;;;;;;;5068129;28;20266;-71
2021/05/19 12:50:48;;;;;;;0.45;0.40;;;;;;;;;;5069239;28;20197;-72
2021/05/19 12:53:30;;;;;;;1.10;0.50;;;;;;;;;;5070187;28;20201;-71
2021/05/19 12:56:06;;;;;;;0.30;0.30;;;;;;;;;;5050216;28;20210;-71
2021/05/19 12:58:47;;;;;;;0.75;0.60;;;;;;;;;;5060270;28;20228;-71
2021/05/19 13:01:14;;;;;;;0.73;0.50;;;;;;;;;;5068779;28;20205;-71
2021/05/19 13:03:41;;;;;;;0.32;0.32;;;;;;;;;;5070059;28;20284;-72
2021/05/19 13:06:07;;;;;;;0.85;0.40;;;;;;;;;;5069668;28;20222;-72
2021/05/19 13:08:34;;;;;;;0.25;0.25;;;;;;;;;;5069936;28;20570;-72
2021/05/19 13:11:03;;;;;;;0.50;0.50;;;;;;;;;;5068737;28;20200;-72
2021/05/19 13:16:12;;;;;;;1.27;0.40;;;;;;;;;;5069307;28;20213;-72
2021/05/19 13:18:44;;;;;;;0.40;0.40;;;;;;;;;;5068160;28;20669;-72
2021/05/19 13:23:46;;;;;;;1.35;0.98;;;;;;;;;;5069779;28;20200;-72
2021/05/19 13:26:13;;;;;;;2.10;1.20;;;;;;;;;;5068061;28;20220;-72
2021/05/19 13:28:41;;;;;;;1.13;0.90;;;;;;;;;;5077853;28;20222;-72
2021/05/19 13:31:08;;;;;;;0.90;0.83;;;;;;;;;;5070037;28;20723;-71
2021/05/19 13:34:04;;;;;;;0.93;0.80;;;;;;;;;;5069419;28;20304;-71
2021/05/19 13:36:35;;;;;;;1.00;1.00;;;;;;;;;;5067998;28;20205;-72
2021/05/19 13:39:03;;;;;;;2.20;1.07;;;;;;;;;;5070443;28;20233;-71
2021/05/19 13:41:30;;;;;;;1.77;0.90;;;;;;;;;;5070003;28;20251;-71
2021/05/19 13:43:56;;;;;;;1.07;0.90;;;;;;;;;;5072062;28;20225;-71
2021/05/19 13:46:22;;;;;;;1.90;0.97;;;;;;;;;;5067810;28;20229;-71
2021/05/19 13:48:49;;;;;;;1.00;0.80;;;;;;;;;;5067897;28;20304;-71
2021/05/19 13:51:15;;;;;;;0.70;0.63;;;;;;;;;;5067194;28;20196;-71
2021/05/19 13:53:42;;;;;;;2.83;1.30;;;;;;;;;;5069183;28;20241;-71
2021/05/19 13:56:09;;;;;;;0.87;0.83;;;;;;;;;;5068811;28;20739;-71
2021/05/19 13:58:35;;;;;;;0.87;0.80;;;;;;;;;;5069040;28;20282;-71
2021/05/19 14:01:04;;;;;;;1.00;0.70;;;;;;;;;;5069321;28;20205;-72
2021/05/19 14:03:30;;;;;;;1.13;0.77;;;;;;;;;;5067577;28;20212;-71
2021/05/19 14:05:57;;;;;;;3.30;1.10;;;;;;;;;;5068152;28;20267;-71
2021/05/19 14:08:27;;;;;;;1.70;0.83;;;;;;;;;;5068141;28;20286;-72
2021/05/19 14:11:07;;;;;;;1.00;0.80;;;;;;;;;;5068774;28;20655;-72
2021/05/19 14:13:48;;;;;;;4.17;0.70;;;;;;;;;;5067442;28;20291;-72
2021/05/19 14:19:46;;;;;;;0.50;0.50;;;;;;;;;;5014086;28;20230;-71
2021/05/19 14:27:25;;;;;;;0.40;0.40;;;;;;;;;;5069717;28;20232;-71
2021/05/19 14:29:52;;;;;;;0.67;0.67;;;;;;;;;;5052119;28;20202;-71
2021/05/19 14:32:19;;;;;;;1.20;0.60;;;;;;;;;;5050350;28;20218;-73
2021/05/19 14:34:49;;;;;;;0.60;0.60;;;;;;;;;;5053296;28;20206;-70
2021/05/19 15:01:17;;;;;;;1.60;0.60;;;;;;;;;;5070512;28;20240;-70
2021/05/19 15:03:44;;;;;;;1.27;0.50;;;;;;;;;;5070495;28;20241;-70
2021/05/19 15:06:10;;;;;;;1.03;0.67;;;;;;;;;;5057154;28;20234;-70
2021/05/19 15:08:37;;;;;;;0.40;0.40;;;;;;;;;;5051029;28;20764;-69
2021/05/19 15:11:03;;;;;;;0.50;0.50;;;;;;;;;;5051331;28;20285;-70
2021/05/19 15:13:30;;;;;;;1.33;0.70;;;;;;;;;;5052864;28;20296;-70
2021/05/19 15:15:56;;;;;;;0.43;0.43;;;;;;;;;;5050471;28;20845;-70
2021/05/19 15:18:23;;;;;;;0.50;0.50;;;;;;;;;;5048041;28;20253;-71
2021/05/19 15:20:51;;;;;;;0.60;0.50;;;;;;;;;;5069360;28;20517;-70
2021/05/19 15:23:18;;;;;;;0.65;0.50;;;;;;;;;;5069881;28;20308;-69
2021/05/19 15:25:44;;;;;;;0.50;0.50;;;;;;;;;;5069505;28;20232;-70
2021/05/19 15:28:16;;;;;;;0.67;0.60;;;;;;;;;;5071103;28;20278;-70
2021/05/19 15:30:42;;;;;;;0.40;0.40;;;;;;;;;;5071065;28;20274;-70
2021/05/19 15:33:09;;;;;;;0.50;0.50;;;;;;;;;;5070900;28;20217;-70
2021/05/19 15:35:35;;;;;;;0.30;0.30;;;;;;;;;;5055369;28;20252;-69
2021/05/19 15:38:04;;;;;;;0.70;0.40;;;;;;;;;;5050431;28;20222;-69
2021/05/19 15:40:30;;;;;;;0.40;0.40;;;;;;;;;;5050152;28;20643;-70
2021/05/19 15:43:06;;;;;;;0.30;0.30;;;;;;;;;;5059057;28;20196;-69
2021/05/19 15:45:32;;;;;;;0.23;0.23;;;;;;;;;;5067066;28;20202;-69
2021/05/19 15:48:00;;;;;;;0.40;0.40;;;;;;;;;;5052196;28;20268;-70
2021/05/19 15:50:26;;;;;;;1.20;0.50;;;;;;;;;;5047442;28;20233;-71
2021/05/19 15:52:53;;;;;;;0.20;0.20;;;;;;;;;;5065078;28;20205;-70